createdAt,value
2018-06-16T00:00:02.888Z,20.65
2018-06-16T00:03:13.464Z,20.17
2018-06-16T00:06:23.871Z,20.95
2018-06-16T00:09:34.575Z,22.17
2018-06-16T00:12:46.256Z,22.30
2018-06-16T00:15:56.940Z,21.85
2018-06-16T00:19:07.524Z,22.13
2018-06-16T00:22:17.865Z,20.52
2018-06-16T00:25:28.556Z,22.30
2018-06-16T00:28:39.119Z,21.27
2018-06-16T00:31:50.844Z,22.20
2018-06-16T00:35:01.224Z,23.52
2018-06-16T00:38:11.995Z,22.05
2018-06-16T00:41:22.697Z,24.45
2018-06-16T00:44:33.250Z,25.20
2018-06-16T00:47:44.316Z,26.25
2018-06-16T00:50:55.097Z,22.13
2018-06-16T00:54:05.651Z,22.50
2018-06-16T00:57:33.266Z,24.60
2018-06-16T01:00:44.044Z,23.38
2018-06-16T01:03:54.804Z,25.60
2018-06-16T01:07:06.050Z,22.10
2018-06-16T01:10:16.832Z,23.20
2018-06-16T01:13:27.545Z,26.17
2018-06-16T01:16:38.097Z,25.27
2018-06-16T01:19:48.439Z,23.27
2018-06-16T01:22:59.115Z,25.90
2018-06-16T01:26:09.501Z,25.65
2018-06-16T01:29:20.180Z,24.23
2018-06-16T01:32:31.287Z,25.92
2018-06-16T01:35:42.520Z,25.88
2018-06-16T01:38:53.304Z,25.52
2018-06-16T01:42:04.169Z,23.67
2018-06-16T01:45:14.855Z,26.37
2018-06-16T01:48:25.367Z,27.42
2018-06-16T01:51:36.132Z,29.30
2018-06-16T01:54:46.991Z,25.85
2018-06-16T01:57:57.780Z,24.32
2018-06-16T02:01:08.657Z,29.23
2018-06-16T02:04:20.156Z,28.05
2018-06-16T02:07:30.696Z,27.93
2018-06-16T02:10:41.264Z,28.32
2018-06-16T02:13:51.847Z,31.37
2018-06-16T02:17:02.615Z,27.67
2018-06-16T02:20:13.384Z,32.70
2018-06-16T02:23:23.705Z,31.55
2018-06-16T02:26:34.636Z,28.60
2018-06-16T02:29:45.208Z,28.90
2018-06-16T02:32:56.073Z,30.07
2018-06-16T02:36:07.014Z,32.43
2018-06-16T02:39:17.889Z,36.68
2018-06-16T02:42:28.340Z,33.10
2018-06-16T02:45:39.418Z,33.80
2018-06-16T02:48:50.252Z,32.98
2018-06-16T02:52:00.992Z,33.73
2018-06-16T02:55:11.455Z,32.97
2018-06-16T02:58:22.089Z,25.30
2018-06-16T03:01:32.768Z,31.13
2018-06-16T03:04:43.644Z,30.63
2018-06-16T03:07:53.908Z,31.43
2018-06-16T03:11:04.745Z,36.67
2018-06-16T03:14:15.448Z,28.02
2018-06-16T03:17:26.201Z,31.57
2018-06-16T03:20:36.591Z,30.97
2018-06-16T03:23:46.889Z,34.17
2018-06-16T03:26:57.832Z,30.97
2018-06-16T03:30:08.324Z,31.50
2018-06-16T03:33:18.927Z,30.43
2018-06-16T03:36:29.197Z,30.97
2018-06-16T03:39:39.865Z,34.43
2018-06-16T03:42:50.649Z,32.97
2018-06-16T03:46:02.568Z,33.42
2018-06-16T03:49:12.795Z,34.00
2018-06-16T03:52:23.030Z,35.25
2018-06-16T03:55:34.381Z,34.57
2018-06-16T03:58:45.199Z,34.92
2018-06-16T04:01:56.019Z,30.60
2018-06-16T04:05:06.307Z,30.85
2018-06-16T04:08:16.983Z,27.87
2018-06-16T04:11:27.543Z,30.95
2018-06-16T04:14:38.164Z,28.87
2018-06-16T04:17:48.916Z,30.87
2018-06-16T04:20:59.615Z,29.05
2018-06-16T04:24:10.003Z,29.82
2018-06-16T04:27:22.283Z,29.03
2018-06-16T04:30:32.681Z,28.30
2018-06-16T04:33:43.625Z,28.30
2018-06-16T04:36:54.207Z,29.00
2018-06-16T04:40:04.961Z,26.95
2018-06-16T04:43:15.247Z,24.82
2018-06-16T04:46:26.145Z,25.27
2018-06-16T04:49:36.980Z,26.10
2018-06-16T04:52:47.432Z,25.40
2018-06-16T04:56:00.900Z,23.17
2018-06-16T04:59:11.771Z,23.57
2018-06-16T05:02:22.361Z,24.52
2018-06-16T05:05:35.213Z,23.55
2018-06-16T05:08:45.800Z,23.35
2018-06-16T05:11:56.640Z,22.07
2018-06-16T05:15:07.405Z,21.87
2018-06-16T05:18:18.521Z,20.62
2018-06-16T05:21:28.851Z,19.37
2018-06-16T05:24:39.467Z,18.92
2018-06-16T05:27:49.857Z,18.35
2018-06-16T05:31:05.708Z,17.73
2018-06-16T05:34:16.812Z,15.88
2018-06-16T05:37:27.592Z,14.28
2018-06-16T05:40:38.423Z,13.32
2018-06-16T05:43:48.751Z,11.78
2018-06-16T05:46:59.148Z,10.35
2018-06-16T05:50:09.516Z,10.45
2018-06-16T05:53:20.044Z,10.23
2018-06-16T05:56:30.826Z,9.85
2018-06-16T05:59:41.339Z,9.78
2018-06-16T06:02:51.991Z,10.95
2018-06-16T06:06:03.627Z,10.58
2018-06-16T06:09:14.548Z,11.48
2018-06-16T06:12:25.258Z,10.48
2018-06-16T06:15:36.032Z,11.40
2018-06-16T06:18:46.823Z,10.82
2018-06-16T06:21:57.700Z,10.88
2018-06-16T06:25:08.200Z,10.63
2018-06-16T06:28:18.602Z,11.10
2018-06-16T06:31:29.036Z,11.30
2018-06-16T06:34:39.720Z,11.50
2018-06-16T06:37:50.232Z,10.48
2018-06-16T06:41:00.724Z,10.43
2018-06-16T06:44:11.895Z,10.78
2018-06-16T06:47:22.217Z,9.70
2018-06-16T06:50:32.945Z,9.83
2018-06-16T06:53:44.820Z,9.90
2018-06-16T06:56:55.984Z,8.58
2018-06-16T07:00:06.282Z,8.10
2018-06-16T07:03:16.976Z,7.05
2018-06-16T07:06:27.488Z,7.67
2018-06-16T07:09:37.863Z,7.12
2018-06-16T07:12:48.471Z,6.70
2018-06-16T07:15:59.073Z,6.50
2018-06-16T07:19:09.643Z,6.28
2018-06-16T07:22:20.095Z,6.47
2018-06-16T07:25:30.906Z,5.17
2018-06-16T07:28:41.820Z,5.50
2018-06-16T07:31:52.402Z,5.90
2018-06-16T07:35:02.874Z,5.65
2018-06-16T07:38:13.276Z,5.67
2018-06-16T07:41:23.966Z,5.20
2018-06-16T07:44:34.607Z,5.20
2018-06-16T07:47:45.438Z,4.90
2018-06-16T07:50:57.060Z,4.97
2018-06-16T07:54:08.247Z,4.70
2018-06-16T07:57:19.096Z,5.03
2018-06-16T08:00:29.785Z,5.12
2018-06-16T08:03:40.254Z,5.28
2018-06-16T08:06:50.927Z,5.15
2018-06-16T08:10:01.813Z,5.80
2018-06-16T08:13:12.805Z,5.67
2018-06-16T08:16:23.524Z,5.80
2018-06-16T08:19:33.935Z,5.83
2018-06-16T08:22:44.852Z,5.97
2018-06-16T08:25:55.751Z,5.80
2018-06-16T08:29:06.821Z,5.10
2018-06-16T08:32:17.783Z,5.10
2018-06-16T08:35:28.445Z,5.35
2018-06-16T08:38:39.241Z,6.03
2018-06-16T08:41:49.908Z,4.65
2018-06-16T08:45:00.216Z,5.70
2018-06-16T08:48:12.467Z,5.28
2018-06-16T08:51:23.399Z,5.62
2018-06-16T08:54:34.250Z,6.25
2018-06-16T08:57:45.208Z,5.83
2018-06-16T09:00:56.139Z,5.50
2018-06-16T09:04:06.702Z,4.87
2018-06-16T09:07:17.478Z,4.15
2018-06-16T09:10:27.879Z,4.50
2018-06-16T09:13:38.494Z,4.28
2018-06-16T09:16:49.024Z,4.20
2018-06-16T09:19:59.811Z,4.53
2018-06-16T09:23:10.094Z,4.47
2018-06-16T09:26:21.004Z,4.80
2018-06-16T09:29:31.579Z,4.85
2018-06-16T09:32:42.445Z,5.72
2018-06-16T09:35:52.679Z,5.45
2018-06-16T09:39:03.608Z,7.15
2018-06-16T09:42:14.562Z,6.90
2018-06-16T09:45:25.016Z,6.05
2018-06-16T09:48:35.623Z,6.45
2018-06-16T09:51:46.580Z,5.55
2018-06-16T09:54:56.936Z,4.78
2018-06-16T09:58:07.368Z,4.80
2018-06-16T10:01:18.021Z,5.20
2018-06-16T10:04:28.683Z,4.47
2018-06-16T10:07:38.960Z,5.03
2018-06-16T10:10:49.726Z,5.55
2018-06-16T10:14:00.532Z,6.62
2018-06-16T10:17:11.357Z,5.53
2018-06-16T10:20:21.784Z,5.33
2018-06-16T10:23:32.083Z,5.55
2018-06-16T10:26:42.631Z,4.80
2018-06-16T10:29:52.851Z,5.00
2018-06-16T10:33:03.173Z,4.37
2018-06-16T10:36:14.201Z,5.30
2018-06-16T10:39:24.788Z,4.75
2018-06-16T10:42:35.170Z,4.72
2018-06-16T10:45:46.060Z,5.55
2018-06-16T10:48:56.684Z,4.62
2018-06-16T10:52:07.180Z,5.22
2018-06-16T10:55:17.631Z,3.75
2018-06-16T10:58:28.396Z,5.25
2018-06-16T11:01:39.164Z,5.37
2018-06-16T11:04:50.320Z,4.20
2018-06-16T11:08:00.856Z,4.08
2018-06-16T11:11:16.494Z,2.87
2018-06-16T11:14:27.058Z,3.55
2018-06-16T11:17:37.844Z,4.10
2018-06-16T11:20:48.709Z,4.50
2018-06-16T11:23:59.913Z,4.05
2018-06-16T11:27:10.723Z,3.58
2018-06-16T11:30:21.319Z,3.25
2018-06-16T11:33:32.023Z,3.02
2018-06-16T11:36:43.134Z,3.42
2018-06-16T11:39:53.813Z,3.42
2018-06-16T11:43:04.421Z,3.22
2018-06-16T11:46:15.283Z,3.70
2018-06-16T11:49:26.631Z,3.42
2018-06-16T11:52:37.485Z,2.90
2018-06-16T11:55:48.370Z,2.75
2018-06-16T11:58:59.531Z,2.50
2018-06-16T12:02:10.652Z,2.77
2018-06-16T12:05:21.349Z,3.65
2018-06-16T12:08:31.826Z,2.50
2018-06-16T12:11:42.362Z,3.02
2018-06-16T12:14:53.215Z,3.00
2018-06-16T12:18:04.120Z,3.52
2018-06-16T12:21:15.030Z,3.52
2018-06-16T12:24:26.267Z,4.03
2018-06-16T12:27:37.091Z,3.12
2018-06-16T12:30:47.547Z,3.30
2018-06-16T12:33:58.772Z,3.02
2018-06-16T12:37:14.001Z,3.45
2018-06-16T12:40:24.687Z,3.00
2018-06-16T12:43:35.409Z,3.08
2018-06-16T12:46:47.182Z,2.83
2018-06-16T12:49:58.147Z,3.25
2018-06-16T12:53:08.960Z,3.87
2018-06-16T12:56:19.973Z,3.12
2018-06-16T12:59:30.904Z,3.27
2018-06-16T13:02:41.606Z,3.20
2018-06-16T13:05:52.191Z,2.67
2018-06-16T13:09:02.860Z,3.30
2018-06-16T13:12:14.060Z,2.60
2018-06-16T13:15:24.480Z,2.65
2018-06-16T13:18:35.401Z,2.70
2018-06-16T13:21:46.820Z,3.35
2018-06-16T13:24:57.524Z,2.60
2018-06-16T13:28:08.589Z,3.00
2018-06-16T13:31:19.513Z,2.25
2018-06-16T13:34:29.970Z,3.45
2018-06-16T13:37:40.811Z,3.30
2018-06-16T13:40:51.584Z,3.05
2018-06-16T13:44:02.445Z,3.50
2018-06-16T13:47:13.248Z,3.15
2018-06-16T13:50:24.030Z,2.80
2018-06-16T13:53:34.672Z,3.02
2018-06-16T13:56:45.278Z,3.08
2018-06-16T13:59:55.736Z,2.62
2018-06-16T14:03:06.633Z,2.47
2018-06-16T14:06:17.272Z,2.50
2018-06-16T14:09:27.680Z,2.90
2018-06-16T14:12:38.730Z,2.42
2018-06-16T14:15:49.590Z,2.58
2018-06-16T14:19:00.502Z,2.75
2018-06-16T14:22:11.317Z,2.22
2018-06-16T14:25:22.160Z,2.55
2018-06-16T14:28:32.996Z,2.40
2018-06-16T14:31:43.824Z,2.22
2018-06-16T14:34:55.808Z,2.42
2018-06-16T14:38:06.961Z,2.02
2018-06-16T14:41:17.634Z,2.40
2018-06-16T14:44:28.917Z,2.70
2018-06-16T14:47:39.576Z,2.85
2018-06-16T14:50:50.540Z,2.92
2018-06-16T14:54:01.495Z,2.20
2018-06-16T14:57:13.544Z,2.95
2018-06-16T15:00:24.810Z,2.45
2018-06-16T15:03:37.927Z,2.42
2018-06-16T15:06:48.825Z,2.50
2018-06-16T15:09:59.797Z,3.25
2018-06-16T15:13:10.419Z,2.25
2018-06-16T15:16:21.162Z,2.50
2018-06-16T15:19:31.544Z,2.60
2018-06-16T15:22:42.478Z,2.72
2018-06-16T15:25:53.286Z,2.58
2018-06-16T15:29:03.952Z,2.20
2018-06-16T15:32:14.820Z,2.35
2018-06-16T15:35:25.648Z,2.80
2018-06-16T15:38:36.356Z,2.30
2018-06-16T15:41:46.908Z,2.20
2018-06-16T15:44:59.405Z,2.27
2018-06-16T15:48:10.225Z,2.17
2018-06-16T15:51:20.798Z,2.20
2018-06-16T15:54:32.505Z,2.33
2018-06-16T15:57:43.245Z,2.00
2018-06-16T16:00:55.390Z,2.02
2018-06-16T16:04:06.381Z,2.08
2018-06-16T16:07:17.475Z,1.95
2018-06-16T16:10:28.268Z,2.05
2018-06-16T16:13:38.604Z,3.90
2018-06-16T16:16:48.969Z,2.25
2018-06-16T16:19:59.557Z,2.10
2018-06-16T16:23:10.326Z,2.02
2018-06-16T16:26:21.160Z,1.92
2018-06-16T16:29:32.026Z,2.05
2018-06-16T16:32:43.030Z,2.05
2018-06-16T16:35:53.367Z,2.17
2018-06-16T16:39:06.294Z,1.90
2018-06-16T16:42:16.696Z,1.85
2018-06-16T16:45:27.585Z,1.90
2018-06-16T16:48:38.080Z,1.80
2018-06-16T16:51:49.536Z,1.92
2018-06-16T16:55:00.462Z,2.05
2018-06-16T16:58:11.245Z,2.87
2018-06-16T17:01:21.827Z,2.22
2018-06-16T17:04:32.877Z,2.47
2018-06-16T17:07:43.259Z,2.45
2018-06-16T17:10:54.267Z,2.33
2018-06-16T17:14:05.480Z,2.98
2018-06-16T17:17:15.905Z,2.80
2018-06-16T17:20:26.968Z,3.30
2018-06-16T17:23:39.105Z,2.67
2018-06-16T17:26:50.141Z,2.95
2018-06-16T17:30:00.996Z,3.00
2018-06-16T17:33:12.587Z,3.15
2018-06-16T17:36:23.287Z,3.00
2018-06-16T17:39:33.840Z,3.10
2018-06-16T17:42:44.496Z,3.17
2018-06-16T17:45:54.928Z,3.45
2018-06-16T17:49:05.672Z,3.17
2018-06-16T17:52:16.410Z,3.22
2018-06-16T17:55:27.049Z,2.98
2018-06-16T17:58:37.687Z,3.10
2018-06-16T18:01:48.526Z,3.40
2018-06-16T18:04:59.183Z,3.33
2018-06-16T18:08:09.896Z,3.30
2018-06-16T18:11:20.509Z,3.55
2018-06-16T18:14:31.253Z,3.87
2018-06-16T18:17:41.684Z,4.58
2018-06-16T18:20:52.340Z,4.72
2018-06-16T18:24:03.186Z,6.20
2018-06-16T18:27:13.447Z,7.17
2018-06-16T18:30:23.971Z,6.08
2018-06-16T18:33:35.071Z,8.68
2018-06-16T18:36:45.545Z,8.55
2018-06-16T18:39:56.193Z,7.78
2018-06-16T18:43:06.823Z,9.08
2018-06-16T18:46:17.171Z,10.15
2018-06-16T18:49:27.568Z,9.55
2018-06-16T18:52:38.809Z,10.13
2018-06-16T18:55:49.109Z,10.15
2018-06-16T18:58:59.437Z,10.70
2018-06-16T19:02:10.296Z,10.23
2018-06-16T19:05:20.764Z,10.45
2018-06-16T19:08:31.794Z,9.35
2018-06-16T19:11:42.754Z,9.75
2018-06-16T19:14:53.756Z,8.98
2018-06-16T19:18:04.445Z,9.98
2018-06-16T19:21:15.337Z,11.50
2018-06-16T19:24:26.212Z,10.80
2018-06-16T19:27:36.850Z,9.55
2018-06-16T19:30:47.745Z,8.50
2018-06-16T19:33:58.508Z,8.13
2018-06-16T19:37:09.290Z,8.20
2018-06-16T19:40:20.105Z,7.75
2018-06-16T19:43:31.716Z,7.97
2018-06-16T19:46:42.327Z,7.65
2018-06-16T19:49:53.790Z,7.87
2018-06-16T19:53:04.498Z,8.80
2018-06-16T19:56:15.079Z,9.10
2018-06-16T19:59:25.515Z,8.03
2018-06-16T20:02:36.266Z,7.53
2018-06-16T20:05:46.545Z,7.70
2018-06-16T20:08:57.210Z,7.65
2018-06-16T20:12:07.598Z,8.10
2018-06-16T20:15:18.267Z,7.87
2018-06-16T20:18:28.950Z,8.28
2018-06-16T20:21:39.769Z,8.58
2018-06-16T20:24:50.432Z,7.70
2018-06-16T20:28:01.180Z,6.97
2018-06-16T20:31:12.138Z,8.30
2018-06-16T20:34:22.554Z,8.95
2018-06-16T20:37:33.342Z,8.08
2018-06-16T20:40:44.420Z,9.93
2018-06-16T20:43:54.832Z,8.45
2018-06-16T20:47:05.880Z,8.38
2018-06-16T20:50:16.624Z,8.78
2018-06-16T20:53:27.356Z,8.88
2018-06-16T20:56:38.019Z,8.58
2018-06-16T20:59:49.031Z,9.10
2018-06-16T21:02:59.802Z,8.77
2018-06-16T21:06:10.688Z,8.00
2018-06-16T21:09:21.010Z,10.18
2018-06-16T21:12:32.558Z,9.83
2018-06-16T21:15:43.336Z,9.20
2018-06-16T21:18:54.172Z,9.30
2018-06-16T21:22:04.669Z,10.38
2018-06-16T21:25:15.112Z,10.60
2018-06-16T21:28:29.756Z,13.45
2018-06-16T21:31:40.158Z,9.55
2018-06-16T21:34:50.633Z,10.98
2018-06-16T21:38:01.077Z,10.45
2018-06-16T21:41:11.988Z,13.78
2018-06-16T21:44:22.686Z,13.78
2018-06-16T21:47:33.715Z,12.05
2018-06-16T21:50:44.511Z,11.60
2018-06-16T21:53:56.463Z,11.18
2018-06-16T21:57:07.439Z,13.47
2018-06-16T22:00:18.133Z,12.53
2018-06-16T22:03:28.990Z,12.40
2018-06-16T22:06:39.400Z,14.07
2018-06-16T22:09:50.045Z,12.85
2018-06-16T22:13:00.899Z,12.28
2018-06-16T22:16:11.483Z,14.78
2018-06-16T22:19:21.921Z,14.87
2018-06-16T22:22:32.326Z,16.17
2018-06-16T22:25:47.563Z,13.97
2018-06-16T22:28:58.344Z,13.13
2018-06-16T22:32:09.093Z,15.27
2018-06-16T22:35:20.052Z,16.43
2018-06-16T22:38:30.695Z,12.88
2018-06-16T22:41:41.308Z,13.45
2018-06-16T22:44:51.791Z,14.98
2018-06-16T22:48:02.119Z,15.80
2018-06-16T22:51:12.863Z,14.43
2018-06-16T22:54:23.193Z,16.10
2018-06-16T22:57:34.531Z,15.00
2018-06-16T23:00:45.460Z,15.00
2018-06-16T23:03:55.767Z,14.53
2018-06-16T23:07:06.003Z,14.17
2018-06-16T23:10:16.590Z,13.70
2018-06-16T23:13:27.286Z,15.20
2018-06-16T23:16:38.313Z,14.10
2018-06-16T23:19:48.985Z,14.73
2018-06-16T23:22:59.422Z,17.02
2018-06-16T23:26:09.592Z,15.70
2018-06-16T23:29:20.326Z,16.70
2018-06-16T23:32:31.088Z,15.18
2018-06-16T23:35:41.913Z,17.87
2018-06-16T23:38:52.695Z,16.52
2018-06-16T23:42:03.832Z,17.62
2018-06-16T23:45:14.193Z,16.12
2018-06-16T23:48:24.923Z,15.95
2018-06-16T23:51:35.524Z,17.35
2018-06-16T23:54:46.031Z,17.00
2018-06-16T23:57:56.715Z,18.20
